createdAt,value
2022-09-06T00:00:58.676Z,4.42
2022-09-06T00:03:25.324Z,4.27
2022-09-06T00:05:51.829Z,4.34
2022-09-06T00:08:18.338Z,4.14
2022-09-06T00:10:44.850Z,4.24
2022-09-06T00:13:12.031Z,4.26
2022-09-06T00:15:39.110Z,4.20
2022-09-06T00:18:07.437Z,4.34
2022-09-06T00:20:34.585Z,4.61
2022-09-06T00:23:04.660Z,4.21
2022-09-06T00:25:33.208Z,4.44
2022-09-06T00:28:04.417Z,4.07
2022-09-06T00:30:33.374Z,4.27
2022-09-06T00:33:00.434Z,4.14
2022-09-06T00:35:27.920Z,4.43
2022-09-06T00:38:02.210Z,4.24
2022-09-06T00:40:32.233Z,4.02
2022-09-06T00:42:58.712Z,4.26
2022-09-06T00:45:27.962Z,4.04
2022-09-06T00:47:55.754Z,4.21
2022-09-06T00:50:22.551Z,4.15
2022-09-06T00:52:52.550Z,4.07
2022-09-06T00:55:20.892Z,4.20
2022-09-06T00:57:49.067Z,4.26
2022-09-06T01:00:15.600Z,4.11
2022-09-06T01:02:42.454Z,4.31
2022-09-06T01:05:10.492Z,4.21
2022-09-06T01:07:45.069Z,4.02
2022-09-06T01:10:20.440Z,4.06
2022-09-06T01:12:59.680Z,4.31
2022-09-06T01:15:35.582Z,4.22
2022-09-06T01:18:42.110Z,4.18
2022-09-06T01:21:21.135Z,4.24
2022-09-06T01:24:02.870Z,4.28
2022-09-06T01:26:44.280Z,4.05
2022-09-06T01:29:26.497Z,4.31
2022-09-06T01:32:19.254Z,4.00
2022-09-06T01:34:53.864Z,4.19
2022-09-06T01:37:23.399Z,4.17
2022-09-06T01:39:50.200Z,4.02
2022-09-06T01:42:26.059Z,3.96
2022-09-06T01:44:59.768Z,4.26
2022-09-06T01:47:45.050Z,4.23
2022-09-06T01:50:11.500Z,3.96
2022-09-06T01:53:09.327Z,4.12
2022-09-06T01:55:52.890Z,4.26
2022-09-06T01:58:19.332Z,4.09
2022-09-06T02:01:13.857Z,4.10
2022-09-06T02:04:18.706Z,4.03
2022-09-06T02:06:57.763Z,4.12
2022-09-06T02:09:29.131Z,4.37
2022-09-06T02:12:00.811Z,4.33
2022-09-06T02:14:37.937Z,4.32
2022-09-06T02:17:11.121Z,4.46
2022-09-06T02:19:48.855Z,4.22
2022-09-06T02:22:21.458Z,4.05
2022-09-06T02:24:53.114Z,4.15
2022-09-06T02:27:19.844Z,4.24
2022-09-06T02:29:46.566Z,4.15
2022-09-06T02:32:23.307Z,4.13
2022-09-06T02:34:56.240Z,4.33
2022-09-06T02:37:26.933Z,4.02
2022-09-06T02:39:55.564Z,4.25
2022-09-06T02:42:24.261Z,4.51
2022-09-06T02:44:50.832Z,4.36
2022-09-06T02:47:17.450Z,4.30
2022-09-06T02:49:43.983Z,4.29
2022-09-06T02:52:10.483Z,4.26
2022-09-06T02:54:36.973Z,4.25
2022-09-06T02:57:03.563Z,4.32
2022-09-06T02:59:30.060Z,4.08
2022-09-06T03:01:56.597Z,4.07
2022-09-06T03:04:23.133Z,4.18
2022-09-06T03:06:49.615Z,4.11
2022-09-06T03:09:16.096Z,3.82
2022-09-06T03:11:42.886Z,4.08
2022-09-06T03:14:09.384Z,4.02
2022-09-06T03:16:35.927Z,4.03
2022-09-06T03:19:02.832Z,4.27
2022-09-06T03:21:29.344Z,4.58
2022-09-06T03:23:55.850Z,4.12
2022-09-06T03:26:22.368Z,3.90
2022-09-06T03:28:48.901Z,3.93
2022-09-06T03:31:15.615Z,4.16
2022-09-06T03:33:42.168Z,3.83
2022-09-06T03:36:08.733Z,4.08
2022-09-06T03:38:35.208Z,3.96
2022-09-06T03:41:01.831Z,3.87
2022-09-06T03:43:28.548Z,4.01
2022-09-06T03:45:57.120Z,4.12
2022-09-06T03:48:26.697Z,4.26
2022-09-06T03:50:56.045Z,3.92
2022-09-06T03:53:24.786Z,4.06
2022-09-06T03:55:53.976Z,4.06
2022-09-06T03:58:22.533Z,4.09
2022-09-06T04:00:49.380Z,4.29
2022-09-06T04:03:16.146Z,4.27
2022-09-06T04:05:46.701Z,3.94
2022-09-06T04:08:13.224Z,4.01
2022-09-06T04:10:39.715Z,3.82
2022-09-06T04:13:06.298Z,3.90
2022-09-06T04:15:32.795Z,4.23
2022-09-06T04:17:59.353Z,4.18
2022-09-06T04:20:25.859Z,4.23
2022-09-06T04:22:52.376Z,4.23
2022-09-06T04:25:18.953Z,3.93
2022-09-06T04:27:45.506Z,4.00
2022-09-06T04:30:12.097Z,4.18
2022-09-06T04:32:38.608Z,4.26
2022-09-06T04:35:05.657Z,4.31
2022-09-06T04:37:32.180Z,4.15
2022-09-06T04:39:58.695Z,4.18
2022-09-06T04:42:25.275Z,4.18
2022-09-06T04:44:51.802Z,4.41
2022-09-06T04:47:18.369Z,4.50
2022-09-06T04:49:45.922Z,4.31
2022-09-06T04:52:12.468Z,4.37
2022-09-06T04:54:39.079Z,4.31
2022-09-06T04:57:05.816Z,4.75
2022-09-06T04:59:32.948Z,4.44
2022-09-06T05:01:59.749Z,4.62
2022-09-06T05:04:26.624Z,4.57
2022-09-06T05:07:05.610Z,4.31
2022-09-06T05:09:33.688Z,4.77
2022-09-06T05:12:00.698Z,4.70
2022-09-06T05:14:28.396Z,4.42
2022-09-06T05:16:55.659Z,4.58
2022-09-06T05:19:22.489Z,4.34
2022-09-06T05:21:51.413Z,4.53
2022-09-06T05:24:18.075Z,4.54
2022-09-06T05:26:44.607Z,4.41
2022-09-06T05:29:11.164Z,4.65
2022-09-06T05:31:37.810Z,4.37
2022-09-06T05:34:04.442Z,4.43
2022-09-06T05:36:31.249Z,4.96
2022-09-06T05:38:58.124Z,4.80
2022-09-06T05:41:25.105Z,4.61
2022-09-06T05:43:51.780Z,4.64
2022-09-06T05:46:18.405Z,4.63
2022-09-06T05:48:52.070Z,4.82
2022-09-06T05:51:18.632Z,4.92
2022-09-06T05:53:45.796Z,4.78
2022-09-06T05:56:15.094Z,4.72
2022-09-06T05:58:41.624Z,4.68
2022-09-06T06:01:15.856Z,4.59
2022-09-06T06:03:43.323Z,4.58
2022-09-06T06:06:09.871Z,4.53
2022-09-06T06:08:36.378Z,4.72
2022-09-06T06:11:03.042Z,4.58
2022-09-06T06:13:30.418Z,4.70
2022-09-06T06:15:56.937Z,4.80
2022-09-06T06:18:23.502Z,4.56
2022-09-06T06:20:50.057Z,4.67
2022-09-06T06:23:16.546Z,4.61
2022-09-06T06:25:43.489Z,4.55
2022-09-06T06:28:09.983Z,4.67
2022-09-06T06:30:36.475Z,5.04
2022-09-06T06:33:03.144Z,5.18
2022-09-06T06:35:29.722Z,4.91
2022-09-06T06:37:59.066Z,4.99
2022-09-06T06:40:25.658Z,4.06
2022-09-06T06:42:52.158Z,4.46
2022-09-06T06:45:18.663Z,4.45
2022-09-06T06:47:49.856Z,4.33
2022-09-06T06:50:16.756Z,4.37
2022-09-06T06:52:43.357Z,4.13
2022-09-06T06:55:09.898Z,4.20
2022-09-06T06:57:36.530Z,3.84
2022-09-06T07:00:04.199Z,4.38
2022-09-06T07:02:30.788Z,4.23
2022-09-06T07:04:57.316Z,4.64
2022-09-06T07:07:31.147Z,4.52
2022-09-06T07:12:44.735Z,4.53
2022-09-06T07:15:11.260Z,4.34
2022-09-06T07:17:37.756Z,4.40
2022-09-06T07:22:39.392Z,4.30
2022-09-06T07:25:07.972Z,4.42
2022-09-06T07:27:50.312Z,4.35
2022-09-06T07:30:17.878Z,4.80
2022-09-06T07:32:44.369Z,4.56
2022-09-06T07:35:10.858Z,4.37
2022-09-06T07:37:37.363Z,4.51
2022-09-06T07:40:04.264Z,4.54
2022-09-06T07:42:36.209Z,4.74
2022-09-06T07:45:03.282Z,4.81
2022-09-06T07:53:13.847Z,4.97
2022-09-06T07:55:42.531Z,5.21
2022-09-06T07:58:09.125Z,5.46
2022-09-06T08:00:35.967Z,5.07
2022-09-06T08:03:02.527Z,5.31
2022-09-06T08:11:02.447Z,4.81
2022-09-06T08:13:29.369Z,5.82
2022-09-06T08:16:05.025Z,6.23
2022-09-06T08:18:31.742Z,5.51
2022-09-06T08:21:12.410Z,5.71
2022-09-06T08:23:44.408Z,5.16
2022-09-06T08:26:10.995Z,4.87
2022-09-06T08:28:37.543Z,5.31
2022-09-06T08:31:13.243Z,4.14
2022-09-06T08:33:41.228Z,4.01
2022-09-06T08:36:09.533Z,4.15
2022-09-06T08:38:36.980Z,3.53
2022-09-06T08:41:26.083Z,3.43
2022-09-06T08:47:09.626Z,4.08
2022-09-06T08:50:04.806Z,3.62
2022-09-06T08:55:51.620Z,2.52
2022-09-06T08:58:52.560Z,2.31
2022-09-06T09:01:24.599Z,2.67
2022-09-06T09:03:58.374Z,2.78
2022-09-06T09:06:28.093Z,2.48
2022-09-06T09:09:08.307Z,2.88
2022-09-06T09:11:35.533Z,2.85
2022-09-06T09:14:16.783Z,2.77
2022-09-06T09:16:44.323Z,2.56
2022-09-06T09:19:10.958Z,3.26
2022-09-06T09:21:39.808Z,5.55
2022-09-06T09:24:09.480Z,2.78
2022-09-06T09:26:53.281Z,3.33
2022-09-06T09:29:25.316Z,3.42
2022-09-06T09:31:56.022Z,3.32
2022-09-06T09:34:36.029Z,2.77
2022-09-06T09:40:32.930Z,2.89
2022-09-06T09:43:16.626Z,2.87
2022-09-06T09:45:43.883Z,3.15
2022-09-06T09:48:26.455Z,2.57
2022-09-06T09:50:54.369Z,2.77
2022-09-06T09:53:23.600Z,2.66
2022-09-06T09:55:57.409Z,3.04
2022-09-06T09:58:35.905Z,3.12
2022-09-06T10:01:25.470Z,3.62
2022-09-06T10:09:39.460Z,3.39
2022-09-06T10:12:07.038Z,3.94
2022-09-06T10:14:46.502Z,3.71
2022-09-06T10:17:49.951Z,3.36
2022-09-06T10:20:16.924Z,3.66
2022-09-06T10:26:17.778Z,3.39
2022-09-06T10:28:44.453Z,3.60
2022-09-06T10:31:32.511Z,3.39
2022-09-06T10:34:07.495Z,3.83
2022-09-06T10:36:37.740Z,3.09
2022-09-06T10:39:30.850Z,3.15
2022-09-06T10:42:17.241Z,3.22
2022-09-06T10:45:04.424Z,3.33
2022-09-06T10:48:03.698Z,3.61
2022-09-06T10:50:49.580Z,3.25
2022-09-06T10:53:24.443Z,2.97
2022-09-06T10:56:25.509Z,3.76
2022-09-06T10:59:38.226Z,3.51
2022-09-06T11:02:43.010Z,3.33
2022-09-06T11:05:48.064Z,3.65
2022-09-06T11:08:50.319Z,3.70
2022-09-06T11:11:35.080Z,4.33
2022-09-06T11:14:09.498Z,3.97
2022-09-06T11:16:47.080Z,3.76
2022-09-06T11:19:22.546Z,3.68
2022-09-06T11:22:26.395Z,3.64
2022-09-06T11:25:14.610Z,4.14
2022-09-06T11:27:48.469Z,3.63
2022-09-06T11:30:18.013Z,3.88
2022-09-06T11:32:49.385Z,4.45
2022-09-06T11:35:25.729Z,4.15
2022-09-06T11:38:19.031Z,3.59
2022-09-06T11:40:50.250Z,3.84
2022-09-06T11:43:49.700Z,3.76
2022-09-06T11:46:48.511Z,3.82
2022-09-06T11:49:15.060Z,3.87
2022-09-06T11:51:43.995Z,4.09
2022-09-06T11:54:19.275Z,4.19
2022-09-06T11:56:45.756Z,3.96
2022-09-06T11:59:17.815Z,4.31
2022-09-06T12:02:01.869Z,4.22
2022-09-06T12:05:03.166Z,3.68
2022-09-06T12:07:32.613Z,4.11
2022-09-06T12:10:30.369Z,4.12
2022-09-06T12:12:58.496Z,3.90
2022-09-06T12:15:45.772Z,4.27
2022-09-06T12:18:47.139Z,3.79
2022-09-06T12:21:34.803Z,3.91
2022-09-06T12:24:02.217Z,4.25
2022-09-06T12:26:54.488Z,4.21
2022-09-06T12:29:27.246Z,4.22
2022-09-06T12:31:57.477Z,3.92
2022-09-06T12:34:31.222Z,4.19
2022-09-06T12:37:01.505Z,4.24
2022-09-06T12:39:28.367Z,4.20
2022-09-06T12:42:10.574Z,3.74
2022-09-06T12:44:50.552Z,3.92
2022-09-06T12:47:25.103Z,4.29
2022-09-06T12:50:23.887Z,3.86
2022-09-06T12:52:54.624Z,4.08
2022-09-06T12:55:29.611Z,3.85
2022-09-06T12:58:08.009Z,3.86
2022-09-06T13:00:51.020Z,3.90
2022-09-06T13:03:26.117Z,3.59
2022-09-06T13:05:56.433Z,3.79
2022-09-06T13:08:36.389Z,3.90
2022-09-06T13:11:09.364Z,3.80
2022-09-06T13:13:36.617Z,4.09
2022-09-06T13:16:03.479Z,3.60
2022-09-06T13:18:37.972Z,3.66
2022-09-06T13:21:06.015Z,4.01
2022-09-06T13:23:49.715Z,4.12
2022-09-06T13:26:33.875Z,4.11
2022-09-06T13:29:16.353Z,4.14
2022-09-06T13:31:48.075Z,3.93
2022-09-06T13:34:22.154Z,4.08
2022-09-06T13:36:52.448Z,4.25
2022-09-06T13:39:33.572Z,3.87
2022-09-06T13:42:05.917Z,3.67
2022-09-06T13:44:35.194Z,3.98
2022-09-06T13:47:02.315Z,3.61
2022-09-06T13:49:28.884Z,3.79
2022-09-06T13:52:00.352Z,3.33
2022-09-06T13:54:27.950Z,3.40
2022-09-06T13:56:54.588Z,3.79
2022-09-06T13:59:21.504Z,3.47
2022-09-06T14:02:11.045Z,3.29
2022-09-06T14:04:38.267Z,2.83
2022-09-06T14:07:05.301Z,2.72
2022-09-06T14:09:31.820Z,2.96
2022-09-06T14:11:58.555Z,2.70
2022-09-06T14:14:25.144Z,2.58
2022-09-06T14:16:51.721Z,2.32
2022-09-06T14:19:19.457Z,2.20
2022-09-06T14:21:45.931Z,2.53
2022-09-06T14:24:12.446Z,2.12
2022-09-06T14:26:39.009Z,2.05
2022-09-06T14:29:05.812Z,2.29
2022-09-06T14:31:32.401Z,2.41
2022-09-06T14:34:00.528Z,2.14
2022-09-06T14:36:29.554Z,2.18
2022-09-06T14:38:58.040Z,2.03
2022-09-06T14:41:25.147Z,2.31
2022-09-06T14:43:54.531Z,2.19
2022-09-06T14:46:23.522Z,1.93
2022-09-06T14:48:57.756Z,2.01
2022-09-06T14:51:27.367Z,2.30
2022-09-06T14:53:58.429Z,2.21
2022-09-06T14:56:26.138Z,2.17
2022-09-06T14:58:53.833Z,2.56
2022-09-06T15:01:23.925Z,3.06
2022-09-06T15:03:55.242Z,2.85
2022-09-06T15:06:24.790Z,3.23
2022-09-06T15:08:55.659Z,3.36
2022-09-06T15:11:40.205Z,3.19
2022-09-06T15:14:18.366Z,3.07
2022-09-06T15:16:46.495Z,3.26
2022-09-06T15:19:13.519Z,3.10
2022-09-06T15:21:40.537Z,3.10
2022-09-06T15:24:11.526Z,2.96
2022-09-06T15:26:39.475Z,2.52
2022-09-06T15:29:05.937Z,2.34
2022-09-06T15:31:36.157Z,2.72
2022-09-06T15:34:02.690Z,2.49
2022-09-06T15:36:29.346Z,2.10
2022-09-06T15:38:58.695Z,1.87
2022-09-06T15:41:27.228Z,2.21
2022-09-06T15:43:59.065Z,1.91
2022-09-06T15:46:34.714Z,2.44
2022-09-06T15:49:05.425Z,2.33
2022-09-06T15:51:33.727Z,2.21
2022-09-06T15:54:00.236Z,2.51
2022-09-06T15:56:27.120Z,2.28
2022-09-06T15:58:53.666Z,2.40
2022-09-06T16:01:25.126Z,2.10
2022-09-06T16:03:54.639Z,2.15
2022-09-06T16:06:27.865Z,1.96
2022-09-06T16:09:01.867Z,2.08
2022-09-06T16:11:29.911Z,3.08
2022-09-06T16:13:56.731Z,2.17
2022-09-06T16:16:24.077Z,1.85
2022-09-06T16:18:51.104Z,1.86
2022-09-06T16:21:21.148Z,1.96
2022-09-06T16:23:53.092Z,2.09
2022-09-06T16:26:21.827Z,1.97
2022-09-06T16:28:50.588Z,2.04
2022-09-06T16:31:18.487Z,2.09
2022-09-06T16:33:45.972Z,1.81
2022-09-06T16:36:13.253Z,1.91
2022-09-06T16:38:40.799Z,2.26
2022-09-06T16:41:16.047Z,2.40
2022-09-06T16:43:44.027Z,2.39
2022-09-06T16:46:11.332Z,2.36
2022-09-06T16:48:38.828Z,2.38
2022-09-06T16:51:13.669Z,2.06
2022-09-06T16:53:42.891Z,2.04
2022-09-06T16:56:11.504Z,2.49
2022-09-06T16:58:38.701Z,1.87
2022-09-06T17:01:06.478Z,1.88
2022-09-06T17:03:34.509Z,1.71
2022-09-06T17:06:01.000Z,2.07
2022-09-06T17:08:27.617Z,1.94
2022-09-06T17:10:54.178Z,1.96
2022-09-06T17:13:20.853Z,2.01
2022-09-06T17:15:54.045Z,2.05
2022-09-06T17:18:20.854Z,1.94
2022-09-06T17:20:58.973Z,2.14
2022-09-06T17:23:25.470Z,2.20
2022-09-06T17:25:52.697Z,2.40
2022-09-06T17:28:19.486Z,2.52
2022-09-06T17:30:46.401Z,2.52
2022-09-06T17:33:13.232Z,2.22
2022-09-06T17:35:39.972Z,2.20
2022-09-06T17:38:06.534Z,2.33
2022-09-06T17:40:33.147Z,2.27
2022-09-06T17:42:59.695Z,2.40
2022-09-06T17:45:26.431Z,2.26
2022-09-06T17:47:52.919Z,2.06
2022-09-06T17:50:19.525Z,2.29
2022-09-06T17:52:46.056Z,2.38
2022-09-06T17:55:12.546Z,2.52
2022-09-06T17:57:39.048Z,2.58
2022-09-06T18:00:05.825Z,2.50
2022-09-06T18:02:32.315Z,2.72
2022-09-06T18:04:58.911Z,3.39
2022-09-06T18:07:25.443Z,3.27
2022-09-06T18:09:51.972Z,2.56
2022-09-06T18:12:18.469Z,2.60
2022-09-06T18:14:44.957Z,2.38
2022-09-06T18:17:11.499Z,2.38
2022-09-06T18:19:37.994Z,2.70
2022-09-06T18:22:04.548Z,2.73
2022-09-06T18:24:31.156Z,2.60
2022-09-06T18:26:57.676Z,2.50
2022-09-06T18:29:24.178Z,2.78
2022-09-06T18:31:50.790Z,2.45
2022-09-06T18:34:17.392Z,2.45
2022-09-06T18:36:43.894Z,2.51
2022-09-06T18:39:10.489Z,2.67
2022-09-06T18:41:36.967Z,2.64
2022-09-06T18:44:05.239Z,2.63
2022-09-06T18:46:34.391Z,2.72
2022-09-06T18:49:00.938Z,2.57
2022-09-06T18:51:28.069Z,2.86
2022-09-06T18:53:56.922Z,2.82
2022-09-06T18:56:23.798Z,2.83
2022-09-06T18:58:50.407Z,2.98
2022-09-06T19:01:18.394Z,3.19
2022-09-06T19:03:45.081Z,3.06
2022-09-06T19:06:16.146Z,3.08
2022-09-06T19:08:43.679Z,2.93
2022-09-06T19:11:16.148Z,2.80
2022-09-06T19:13:44.950Z,2.49
2022-09-06T19:16:13.595Z,2.31
2022-09-06T19:18:41.181Z,2.10
2022-09-06T19:21:12.609Z,1.93
2022-09-06T19:23:41.563Z,2.23
2022-09-06T19:26:20.487Z,2.34
2022-09-06T19:29:00.571Z,2.25
2022-09-06T19:31:30.457Z,2.44
2022-09-06T19:33:57.871Z,2.53
2022-09-06T19:36:26.458Z,2.88
2022-09-06T19:39:04.342Z,2.90
2022-09-06T19:41:35.533Z,2.43
2022-09-06T19:44:02.225Z,2.59
2022-09-06T19:46:28.823Z,2.56
2022-09-06T19:48:55.819Z,2.44
2022-09-06T19:51:22.687Z,2.59
2022-09-06T19:53:52.002Z,3.21
2022-09-06T19:56:22.252Z,3.30
2022-09-06T19:58:54.436Z,3.41
2022-09-06T20:01:21.608Z,2.84
2022-09-06T20:03:48.192Z,3.34
2022-09-06T20:06:14.697Z,2.77
2022-09-06T20:08:41.980Z,2.63
2022-09-06T20:11:10.526Z,2.75
2022-09-06T20:13:38.669Z,2.58
2022-09-06T20:16:07.480Z,2.67
2022-09-06T20:18:34.059Z,2.48
2022-09-06T20:21:00.920Z,2.41
2022-09-06T20:23:28.719Z,2.48
2022-09-06T20:26:06.650Z,2.59
2022-09-06T20:28:34.633Z,2.72
2022-09-06T20:31:04.514Z,3.01
2022-09-06T20:33:31.096Z,3.54
2022-09-06T20:36:00.508Z,3.22
2022-09-06T20:38:27.085Z,2.99
2022-09-06T20:41:17.533Z,2.78
2022-09-06T20:43:44.579Z,2.84
2022-09-06T20:46:12.564Z,3.22
2022-09-06T20:48:43.768Z,2.95
2022-09-06T20:51:14.566Z,3.07
2022-09-06T20:53:41.210Z,2.87
2022-09-06T20:56:13.756Z,2.74
2022-09-06T20:58:41.058Z,2.72
2022-09-06T21:01:13.672Z,2.32
2022-09-06T21:03:42.341Z,2.63
2022-09-06T21:06:11.373Z,2.90
2022-09-06T21:08:42.562Z,2.82
2022-09-06T21:11:09.687Z,2.70
2022-09-06T21:13:37.360Z,2.52
2022-09-06T21:16:05.173Z,2.86
2022-09-06T21:18:33.169Z,2.77
2022-09-06T21:21:02.115Z,2.62
2022-09-06T21:23:31.747Z,2.57
2022-09-06T21:26:01.408Z,2.81
2022-09-06T21:28:34.669Z,2.89
2022-09-06T21:31:12.041Z,3.02
2022-09-06T21:33:42.331Z,2.79
2022-09-06T21:36:18.274Z,2.79
2022-09-06T21:38:47.273Z,2.77
2022-09-06T21:41:16.398Z,3.05
2022-09-06T21:43:43.729Z,2.82
2022-09-06T21:46:15.999Z,2.70
2022-09-06T21:48:45.763Z,2.72
2022-09-06T21:51:14.547Z,2.79
2022-09-06T21:53:46.621Z,2.99
2022-09-06T21:56:13.664Z,2.92
2022-09-06T21:58:40.531Z,2.97
2022-09-06T22:01:08.016Z,2.69
2022-09-06T22:03:37.366Z,2.91
2022-09-06T22:06:15.762Z,2.84
2022-09-06T22:08:43.377Z,2.73
2022-09-06T22:11:15.834Z,2.93
2022-09-06T22:13:43.574Z,2.74
2022-09-06T22:16:12.029Z,3.01
2022-09-06T22:18:39.033Z,3.07
2022-09-06T22:21:14.818Z,3.11
2022-09-06T22:23:41.395Z,2.93
2022-09-06T22:26:11.258Z,3.05
2022-09-06T22:28:38.995Z,2.99
2022-09-06T22:31:07.289Z,2.94
2022-09-06T22:33:34.515Z,2.90
2022-09-06T22:36:01.264Z,3.09
2022-09-06T22:38:29.846Z,3.08
2022-09-06T22:40:57.249Z,3.12
2022-09-06T22:43:24.117Z,3.16
2022-09-06T22:45:52.165Z,2.94
2022-09-06T22:48:19.249Z,2.87
2022-09-06T22:50:46.929Z,2.78
2022-09-06T22:53:13.505Z,2.63
2022-09-06T22:55:40.139Z,2.80
2022-09-06T22:58:06.664Z,2.35
2022-09-06T23:00:35.839Z,2.44
2022-09-06T23:03:02.584Z,2.29
2022-09-06T23:05:31.198Z,2.50
2022-09-06T23:07:57.671Z,2.51
2022-09-06T23:10:24.159Z,2.56
2022-09-06T23:12:54.232Z,2.21
2022-09-06T23:15:21.139Z,2.48
2022-09-06T23:17:47.660Z,2.70
2022-09-06T23:20:14.243Z,2.27
2022-09-06T23:22:41.370Z,2.36
2022-09-06T23:25:09.001Z,2.43
2022-09-06T23:27:35.609Z,2.57
2022-09-06T23:30:02.224Z,2.38
2022-09-06T23:32:28.979Z,2.15
2022-09-06T23:34:55.478Z,2.27
2022-09-06T23:37:21.955Z,2.20
2022-09-06T23:39:48.502Z,2.48
2022-09-06T23:42:15.056Z,2.49
2022-09-06T23:44:41.529Z,2.38
2022-09-06T23:47:08.067Z,2.42
2022-09-06T23:49:34.538Z,2.47
2022-09-06T23:52:01.102Z,2.39
2022-09-06T23:54:27.754Z,2.63
2022-09-06T23:56:54.248Z,2.55
2022-09-06T23:59:20.723Z,2.56
